Providence, Rhode Island
Traffic Map
Current Weather Conditions
Providence, Rhode Island
Overcast
Overcast
44°
Feels Like: 40°
Wind Chill: 40° Ceiling: 3000
Heat Index: 44° Visibility: 10mi
Dew Point: 29° Wind: 7mph
Humidity: 55% Direction: 40° (NE)
Pressure: 30.49in Gusts: 0mph
Raw Report DataKPVD 181551Z 04006KT 10SM BKN030 OVC035 07/M02 A3049 RMK AO2 PRESFR SLP326 T00671017
Traffic Incident Summary
Active as of:
Severity:
Category:
InformationThere was an issue retrieving the traffic information for this location. Please try a different location or try again shortly.
Advertisements
At Last! Intellicast now available for iPhone and Android